sensor_id;sensor_type;location;lat;lon;timestamp;pressure;altitude;pressure_sealevel;temperature;humidity
75166;BME280;63747;48.042;10.088;2022-11-15T00:00:45;95099.91;;;4.74;69.39
75166;BME280;63747;48.042;10.088;2022-11-15T00:03:45;95104.63;;;4.80;69.22
75166;BME280;63747;48.042;10.088;2022-11-15T00:06:46;95110.31;;;4.75;69.17
75166;BME280;63747;48.042;10.088;2022-11-15T00:09:47;95096.19;;;4.67;69.29
75166;BME280;63747;48.042;10.088;2022-11-15T00:12:47;95106.03;;;4.65;69.23
75166;BME280;63747;48.042;10.088;2022-11-15T00:15:48;95106.72;;;4.57;69.21
75166;BME280;63747;48.042;10.088;2022-11-15T00:18:49;95105.06;;;4.46;69.19
75166;BME280;63747;48.042;10.088;2022-11-15T00:21:50;95103.13;;;4.39;69.41
75166;BME280;63747;48.042;10.088;2022-11-15T00:24:50;95101.06;;;4.32;69.58
75166;BME280;63747;48.042;10.088;2022-11-15T00:27:55;95104.50;;;4.33;69.32
75166;BME280;63747;48.042;10.088;2022-11-15T00:31:04;95105.03;;;4.27;69.57
75166;BME280;63747;48.042;10.088;2022-11-15T00:34:05;95100.38;;;4.21;69.58
75166;BME280;63747;48.042;10.088;2022-11-15T00:37:06;95095.94;;;4.12;69.81
75166;BME280;63747;48.042;10.088;2022-11-15T00:40:08;95091.22;;;4.05;70.07
75166;BME280;63747;48.042;10.088;2022-11-15T00:43:08;95098.28;;;4.05;69.77
75166;BME280;63747;48.042;10.088;2022-11-15T00:46:09;95083.66;;;4.02;69.55
75166;BME280;63747;48.042;10.088;2022-11-15T00:49:10;95087.91;;;4.03;69.53
75166;BME280;63747;48.042;10.088;2022-11-15T00:52:11;95085.00;;;3.97;69.53
75166;BME280;63747;48.042;10.088;2022-11-15T00:55:18;95077.69;;;3.91;69.67
75166;BME280;63747;48.042;10.088;2022-11-15T00:58:19;95077.41;;;3.84;69.80
75166;BME280;63747;48.042;10.088;2022-11-15T01:01:20;95072.00;;;3.76;70.01
75166;BME280;63747;48.042;10.088;2022-11-15T01:04:21;95065.78;;;3.77;70.08
75166;BME280;63747;48.042;10.088;2022-11-15T01:07:21;95065.53;;;3.80;70.07
75166;BME280;63747;48.042;10.088;2022-11-15T01:10:23;95065.53;;;3.80;70.12
75166;BME280;63747;48.042;10.088;2022-11-15T01:13:23;95060.41;;;3.78;70.24
75166;BME280;63747;48.042;10.088;2022-11-15T01:16:24;95059.34;;;3.81;70.29
75166;BME280;63747;48.042;10.088;2022-11-15T01:19:25;95055.06;;;3.80;70.32
75166;BME280;63747;48.042;10.088;2022-11-15T01:22:26;95043.03;;;3.77;70.17
75166;BME280;63747;48.042;10.088;2022-11-15T01:25:26;95039.59;;;3.77;70.29
75166;BME280;63747;48.042;10.088;2022-11-15T01:28:35;95040.81;;;3.73;70.37
75166;BME280;63747;48.042;10.088;2022-11-15T01:31:36;95032.13;;;3.72;70.22
75166;BME280;63747;48.042;10.088;2022-11-15T01:34:38;95018.63;;;3.67;70.21
75166;BME280;63747;48.042;10.088;2022-11-15T01:37:38;95019.53;;;3.66;70.25
75166;BME280;63747;48.042;10.088;2022-11-15T01:40:39;95021.63;;;3.63;70.24
75166;BME280;63747;48.042;10.088;2022-11-15T01:43:41;95011.00;;;3.55;70.08
75166;BME280;63747;48.042;10.088;2022-11-15T01:46:44;95011.41;;;3.50;70.04
75166;BME280;63747;48.042;10.088;2022-11-15T01:49:54;95006.00;;;3.42;70.17
75166;BME280;63747;48.042;10.088;2022-11-15T01:52:55;95012.03;;;3.33;70.09
75166;BME280;63747;48.042;10.088;2022-11-15T01:55:57;95009.81;;;3.28;70.41
75166;BME280;63747;48.042;10.088;2022-11-15T01:58:59;95010.06;;;3.25;70.33
75166;BME280;63747;48.042;10.088;2022-11-15T02:02:02;94993.34;;;3.16;70.22
75166;BME280;63747;48.042;10.088;2022-11-15T02:05:03;95006.44;;;3.16;70.45
75166;BME280;63747;48.042;10.088;2022-11-15T02:08:05;95005.06;;;3.12;70.54
75166;BME280;63747;48.042;10.088;2022-11-15T02:11:11;94992.81;;;3.13;70.65
75166;BME280;63747;48.042;10.088;2022-11-15T02:14:13;94986.84;;;3.11;70.76
75166;BME280;63747;48.042;10.088;2022-11-15T02:17:24;94981.75;;;3.09;70.88
75166;BME280;63747;48.042;10.088;2022-11-15T02:20:43;94976.09;;;3.04;70.93
75166;BME280;63747;48.042;10.088;2022-11-15T02:27:47;94976.50;;;3.00;70.86
75166;BME280;63747;48.042;10.088;2022-11-15T02:37:59;94969.53;;;2.79;71.20
75166;BME280;63747;48.042;10.088;2022-11-15T02:41:09;94962.22;;;2.83;71.18
75166;BME280;63747;48.042;10.088;2022-11-15T02:44:30;94964.59;;;2.86;70.89
75166;BME280;63747;48.042;10.088;2022-11-15T02:47:39;94953.31;;;2.85;70.41
75166;BME280;63747;48.042;10.088;2022-11-15T02:50:42;94940.59;;;2.81;70.53
75166;BME280;63747;48.042;10.088;2022-11-15T02:53:43;94953.84;;;2.79;70.37
75166;BME280;63747;48.042;10.088;2022-11-15T02:56:45;94948.16;;;2.74;70.05
75166;BME280;63747;48.042;10.088;2022-11-15T02:59:56;94955.75;;;2.47;70.44
75166;BME280;63747;48.042;10.088;2022-11-15T03:03:29;94958.19;;;2.38;71.03
75166;BME280;63747;48.042;10.088;2022-11-15T03:06:53;94955.25;;;2.32;71.11
75166;BME280;63747;48.042;10.088;2022-11-15T03:10:12;94956.50;;;2.37;71.08
75166;BME280;63747;48.042;10.088;2022-11-15T03:13:26;94956.25;;;2.40;70.66
75166;BME280;63747;48.042;10.088;2022-11-15T03:16:40;94953.50;;;2.42;70.58
75166;BME280;63747;48.042;10.088;2022-11-15T03:19:57;94953.66;;;2.40;70.62
75166;BME280;63747;48.042;10.088;2022-11-15T03:23:04;94952.97;;;2.38;70.37
75166;BME280;63747;48.042;10.088;2022-11-15T03:26:09;94958.44;;;2.35;70.49
75166;BME280;63747;48.042;10.088;2022-11-15T03:29:14;94959.97;;;2.38;70.37
75166;BME280;63747;48.042;10.088;2022-11-15T03:32:19;94943.44;;;2.37;70.32
75166;BME280;63747;48.042;10.088;2022-11-15T03:35:24;94948.66;;;2.37;70.49
75166;BME280;63747;48.042;10.088;2022-11-15T03:38:29;94943.19;;;2.40;70.44
75166;BME280;63747;48.042;10.088;2022-11-15T03:41:40;94939.38;;;2.45;70.51
75166;BME280;63747;48.042;10.088;2022-11-15T03:48:56;94928.94;;;2.54;70.63
75166;BME280;63747;48.042;10.088;2022-11-15T03:51:38;94936.66;;;2.56;70.64
75166;BME280;63747;48.042;10.088;2022-11-15T03:54:54;94940.81;;;2.58;70.81
75166;BME280;63747;48.042;10.088;2022-11-15T03:57:57;94943.00;;;2.63;70.55
75166;BME280;63747;48.042;10.088;2022-11-15T04:00:59;94929.22;;;2.61;70.51
75166;BME280;63747;48.042;10.088;2022-11-15T04:03:59;94935.81;;;2.55;70.86
75166;BME280;63747;48.042;10.088;2022-11-15T04:07:00;94928.78;;;2.56;70.93
75166;BME280;63747;48.042;10.088;2022-11-15T04:10:01;94925.94;;;2.59;70.94
75166;BME280;63747;48.042;10.088;2022-11-15T04:13:02;94929.09;;;2.62;70.99
75166;BME280;63747;48.042;10.088;2022-11-15T04:16:03;94925.66;;;2.62;71.06
75166;BME280;63747;48.042;10.088;2022-11-15T04:19:04;94933.63;;;2.60;70.90
75166;BME280;63747;48.042;10.088;2022-11-15T04:22:23;94930.03;;;2.52;70.98
75166;BME280;63747;48.042;10.088;2022-11-15T04:25:44;94917.88;;;2.51;71.14
75166;BME280;63747;48.042;10.088;2022-11-15T04:28:45;94923.25;;;2.49;71.07
75166;BME280;63747;48.042;10.088;2022-11-15T04:32:06;94925.03;;;2.49;71.13
75166;BME280;63747;48.042;10.088;2022-11-15T04:35:07;94918.81;;;2.40;71.14
75166;BME280;63747;48.042;10.088;2022-11-15T04:38:09;94909.31;;;2.39;71.02
75166;BME280;63747;48.042;10.088;2022-11-15T04:41:10;94916.19;;;2.40;71.01
75166;BME280;63747;48.042;10.088;2022-11-15T04:44:11;94909.56;;;2.36;71.12
75166;BME280;63747;48.042;10.088;2022-11-15T04:47:12;94908.19;;;2.32;71.10
75166;BME280;63747;48.042;10.088;2022-11-15T04:50:14;94903.47;;;2.26;71.08
75166;BME280;63747;48.042;10.088;2022-11-15T04:53:15;94897.81;;;2.21;71.36
75166;BME280;63747;48.042;10.088;2022-11-15T04:56:16;94904.53;;;2.23;71.13
75166;BME280;63747;48.042;10.088;2022-11-15T04:59:17;94900.28;;;2.22;71.09
75166;BME280;63747;48.042;10.088;2022-11-15T05:02:17;94902.06;;;2.22;71.14
75166;BME280;63747;48.042;10.088;2022-11-15T05:05:18;94888.53;;;2.16;71.26
75166;BME280;63747;48.042;10.088;2022-11-15T05:08:19;94899.28;;;2.13;71.13
75166;BME280;63747;48.042;10.088;2022-11-15T05:11:20;94895.25;;;2.09;71.23
75166;BME280;63747;48.042;10.088;2022-11-15T05:14:21;94895.38;;;2.08;71.17
75166;BME280;63747;48.042;10.088;2022-11-15T05:17:21;94900.31;;;2.01;71.29
75166;BME280;63747;48.042;10.088;2022-11-15T05:20:22;94895.28;;;1.88;71.36
75166;BME280;63747;48.042;10.088;2022-11-15T05:23:23;94893.44;;;1.79;71.51
75166;BME280;63747;48.042;10.088;2022-11-15T05:26:23;94891.66;;;1.80;71.55
75166;BME280;63747;48.042;10.088;2022-11-15T05:29:24;94895.78;;;1.82;71.67
75166;BME280;63747;48.042;10.088;2022-11-15T05:32:25;94893.31;;;1.81;71.53
75166;BME280;63747;48.042;10.088;2022-11-15T05:35:37;94892.47;;;1.80;71.41
75166;BME280;63747;48.042;10.088;2022-11-15T05:38:39;94889.69;;;1.72;71.62
75166;BME280;63747;48.042;10.088;2022-11-15T05:41:44;94888.59;;;1.75;71.58
75166;BME280;63747;48.042;10.088;2022-11-15T05:44:48;94892.28;;;1.72;71.60
75166;BME280;63747;48.042;10.088;2022-11-15T05:47:50;94888.84;;;1.72;71.66
75166;BME280;63747;48.042;10.088;2022-11-15T05:50:52;94885.50;;;1.70;71.45
75166;BME280;63747;48.042;10.088;2022-11-15T05:53:55;94890.88;;;1.68;71.56
75166;BME280;63747;48.042;10.088;2022-11-15T05:56:57;94884.81;;;1.68;71.30
75166;BME280;63747;48.042;10.088;2022-11-15T05:59:58;94873.09;;;1.62;71.28
75166;BME280;63747;48.042;10.088;2022-11-15T06:02:59;94876.94;;;1.58;71.52
75166;BME280;63747;48.042;10.088;2022-11-15T06:06:00;94871.84;;;1.56;71.29
75166;BME280;63747;48.042;10.088;2022-11-15T06:09:02;94870.97;;;1.56;71.37
75166;BME280;63747;48.042;10.088;2022-11-15T06:12:03;94872.78;;;1.55;71.42
75166;BME280;63747;48.042;10.088;2022-11-15T06:15:04;94867.22;;;1.49;71.44
75166;BME280;63747;48.042;10.088;2022-11-15T06:18:04;94863.91;;;1.47;71.27
75166;BME280;63747;48.042;10.088;2022-11-15T06:21:05;94863.09;;;1.46;71.54
75166;BME280;63747;48.042;10.088;2022-11-15T06:24:06;94873.53;;;1.46;71.67
75166;BME280;63747;48.042;10.088;2022-11-15T06:27:07;94867.72;;;1.43;71.69
75166;BME280;63747;48.042;10.088;2022-11-15T06:30:08;94868.19;;;1.48;71.70
75166;BME280;63747;48.042;10.088;2022-11-15T06:33:09;94867.22;;;1.49;71.66
75166;BME280;63747;48.042;10.088;2022-11-15T06:36:12;94865.56;;;1.48;71.86
75166;BME280;63747;48.042;10.088;2022-11-15T06:39:17;94855.91;;;1.39;71.99
75166;BME280;63747;48.042;10.088;2022-11-15T06:42:17;94851.72;;;1.36;71.93
75166;BME280;63747;48.042;10.088;2022-11-15T06:45:18;94855.75;;;1.40;72.09
75166;BME280;63747;48.042;10.088;2022-11-15T06:48:19;94863.34;;;1.43;72.08
75166;BME280;63747;48.042;10.088;2022-11-15T06:51:20;94858.69;;;1.47;72.21
75166;BME280;63747;48.042;10.088;2022-11-15T06:54:20;94849.91;;;1.48;72.31
75166;BME280;63747;48.042;10.088;2022-11-15T06:57:22;94855.84;;;1.50;72.37
75166;BME280;63747;48.042;10.088;2022-11-15T07:00:23;94857.75;;;1.48;72.22
75166;BME280;63747;48.042;10.088;2022-11-15T07:03:23;94858.06;;;1.54;72.46
75166;BME280;63747;48.042;10.088;2022-11-15T07:06:24;94853.28;;;1.59;72.50
75166;BME280;63747;48.042;10.088;2022-11-15T07:09:25;94857.88;;;1.67;72.53
75166;BME280;63747;48.042;10.088;2022-11-15T07:12:26;94855.34;;;1.77;72.61
75166;BME280;63747;48.042;10.088;2022-11-15T07:15:26;94862.25;;;1.87;72.68
75166;BME280;63747;48.042;10.088;2022-11-15T07:18:27;94857.78;;;1.99;72.37
75166;BME280;63747;48.042;10.088;2022-11-15T07:21:28;94862.09;;;2.10;72.15
75166;BME280;63747;48.042;10.088;2022-11-15T07:24:29;94865.16;;;2.15;72.20
75166;BME280;63747;48.042;10.088;2022-11-15T07:27:30;94867.00;;;2.24;72.06
75166;BME280;63747;48.042;10.088;2022-11-15T07:30:30;94852.69;;;2.28;72.20
75166;BME280;63747;48.042;10.088;2022-11-15T07:33:31;94854.13;;;2.42;72.00
75166;BME280;63747;48.042;10.088;2022-11-15T07:36:32;94853.44;;;2.50;71.98
75166;BME280;63747;48.042;10.088;2022-11-15T07:39:32;94852.91;;;2.46;71.92
75166;BME280;63747;48.042;10.088;2022-11-15T07:42:33;94858.81;;;2.48;72.08
75166;BME280;63747;48.042;10.088;2022-11-15T07:45:53;94851.00;;;2.58;72.22
75166;BME280;63747;48.042;10.088;2022-11-15T07:48:54;94844.97;;;2.67;71.96
75166;BME280;63747;48.042;10.088;2022-11-15T07:51:54;94848.59;;;2.85;71.93
75166;BME280;63747;48.042;10.088;2022-11-15T07:54:55;94841.72;;;3.04;71.74
75166;BME280;63747;48.042;10.088;2022-11-15T07:58:09;94840.63;;;3.16;71.79
75166;BME280;63747;48.042;10.088;2022-11-15T08:01:10;94842.41;;;3.25;71.70
75166;BME280;63747;48.042;10.088;2022-11-15T08:04:11;94838.28;;;3.32;71.80
75166;BME280;63747;48.042;10.088;2022-11-15T08:07:12;94832.09;;;3.33;71.67
75166;BME280;63747;48.042;10.088;2022-11-15T08:10:13;94840.50;;;3.37;71.90
75166;BME280;63747;48.042;10.088;2022-11-15T08:13:16;94830.59;;;3.50;71.84
75166;BME280;63747;48.042;10.088;2022-11-15T08:16:17;94829.63;;;3.61;71.51
75166;BME280;63747;48.042;10.088;2022-11-15T08:19:18;94820.63;;;3.73;71.75
75166;BME280;63747;48.042;10.088;2022-11-15T08:22:19;94820.47;;;3.84;71.58
75166;BME280;63747;48.042;10.088;2022-11-15T08:25:20;94817.38;;;3.98;71.44
75166;BME280;63747;48.042;10.088;2022-11-15T08:28:20;94800.50;;;4.11;71.29
75166;BME280;63747;48.042;10.088;2022-11-15T08:31:21;94792.16;;;4.25;71.26
75166;BME280;63747;48.042;10.088;2022-11-15T08:34:22;94790.19;;;4.37;71.11
75166;BME280;63747;48.042;10.088;2022-11-15T08:37:23;94795.19;;;4.57;70.99
75166;BME280;63747;48.042;10.088;2022-11-15T08:40:24;94795.00;;;4.69;70.83
75166;BME280;63747;48.042;10.088;2022-11-15T08:43:26;94792.22;;;4.88;70.46
75166;BME280;63747;48.042;10.088;2022-11-15T08:46:27;94793.06;;;5.06;70.50
75166;BME280;63747;48.042;10.088;2022-11-15T08:49:28;94785.69;;;5.28;70.15
75166;BME280;63747;48.042;10.088;2022-11-15T08:52:29;94780.66;;;5.52;69.68
75166;BME280;63747;48.042;10.088;2022-11-15T08:55:30;94779.78;;;5.69;69.50
75166;BME280;63747;48.042;10.088;2022-11-15T08:58:30;94767.16;;;5.91;69.25
75166;BME280;63747;48.042;10.088;2022-11-15T09:01:31;94764.44;;;6.09;68.83
75166;BME280;63747;48.042;10.088;2022-11-15T09:04:32;94754.13;;;6.23;68.60
75166;BME280;63747;48.042;10.088;2022-11-15T09:07:33;94756.84;;;6.40;68.52
75166;BME280;63747;48.042;10.088;2022-11-15T09:10:34;94757.59;;;6.58;67.88
75166;BME280;63747;48.042;10.088;2022-11-15T09:13:35;94751.53;;;6.74;67.74
75166;BME280;63747;48.042;10.088;2022-11-15T09:16:39;94747.78;;;6.93;67.33
75166;BME280;63747;48.042;10.088;2022-11-15T09:19:39;94756.53;;;7.18;67.23
75166;BME280;63747;48.042;10.088;2022-11-15T09:22:40;94751.75;;;7.38;66.95
75166;BME280;63747;48.042;10.088;2022-11-15T09:25:41;94757.53;;;7.57;66.75
75166;BME280;63747;48.042;10.088;2022-11-15T09:28:42;94749.13;;;7.70;66.51
75166;BME280;63747;48.042;10.088;2022-11-15T09:31:43;94744.53;;;7.80;65.96
75166;BME280;63747;48.042;10.088;2022-11-15T09:34:43;94742.84;;;7.96;65.44
75166;BME280;63747;48.042;10.088;2022-11-15T09:37:44;94740.47;;;8.17;64.81
75166;BME280;63747;48.042;10.088;2022-11-15T09:40:49;94734.03;;;8.11;63.88
75166;BME280;63747;48.042;10.088;2022-11-15T09:44:05;94738.47;;;8.27;64.38
75166;BME280;63747;48.042;10.088;2022-11-15T09:50:46;94732.47;;;8.73;63.92
75166;BME280;63747;48.042;10.088;2022-11-15T09:57:31;94737.44;;;9.21;63.04
75166;BME280;63747;48.042;10.088;2022-11-15T10:00:43;94741.59;;;9.47;62.16
75166;BME280;63747;48.042;10.088;2022-11-15T10:03:45;94741.28;;;9.65;61.92
75166;BME280;63747;48.042;10.088;2022-11-15T10:06:54;94744.25;;;9.85;61.56
75166;BME280;63747;48.042;10.088;2022-11-15T10:10:13;94729.72;;;9.95;61.00
75166;BME280;63747;48.042;10.088;2022-11-15T10:13:26;94714.41;;;10.05;60.40
75166;BME280;63747;48.042;10.088;2022-11-15T10:22:44;94700.03;;;10.59;59.65
75166;BME280;63747;48.042;10.088;2022-11-15T10:25:51;94699.00;;;10.75;59.91
75166;BME280;63747;48.042;10.088;2022-11-15T10:28:53;94696.78;;;10.93;60.18
75166;BME280;63747;48.042;10.088;2022-11-15T10:31:54;94682.69;;;11.14;59.15
75166;BME280;63747;48.042;10.088;2022-11-15T10:34:54;94681.59;;;11.30;58.59
75166;BME280;63747;48.042;10.088;2022-11-15T10:38:06;94675.53;;;11.36;57.91
75166;BME280;63747;48.042;10.088;2022-11-15T10:41:07;94662.91;;;11.38;57.03
75166;BME280;63747;48.042;10.088;2022-11-15T10:44:18;94661.22;;;11.58;57.22
75166;BME280;63747;48.042;10.088;2022-11-15T10:47:31;94658.63;;;11.65;56.21
75166;BME280;63747;48.042;10.088;2022-11-15T10:50:32;94665.28;;;11.54;57.26
75166;BME280;63747;48.042;10.088;2022-11-15T10:53:41;94661.25;;;11.37;56.79
75166;BME280;63747;48.042;10.088;2022-11-15T10:56:49;94655.84;;;11.52;57.29
75166;BME280;63747;48.042;10.088;2022-11-15T10:59:54;94652.28;;;11.38;57.37
75166;BME280;63747;48.042;10.088;2022-11-15T11:06:08;94642.63;;;11.58;57.30
75166;BME280;63747;48.042;10.088;2022-11-15T11:09:37;94639.50;;;11.76;58.19
75166;BME280;63747;48.042;10.088;2022-11-15T11:12:38;94634.06;;;11.91;57.07
75166;BME280;63747;48.042;10.088;2022-11-15T11:15:41;94634.63;;;12.08;56.54
75166;BME280;63747;48.042;10.088;2022-11-15T11:25:42;94615.38;;;12.60;54.53
75166;BME280;63747;48.042;10.088;2022-11-15T11:29:02;94619.81;;;12.40;55.69
75166;BME280;63747;48.042;10.088;2022-11-15T11:35:39;94605.66;;;12.26;55.52
75166;BME280;63747;48.042;10.088;2022-11-15T11:38:51;94613.53;;;12.06;55.97
75166;BME280;63747;48.042;10.088;2022-11-15T11:42:17;94607.06;;;12.15;55.20
75166;BME280;63747;48.042;10.088;2022-11-15T11:51:28;94615.34;;;12.34;54.88
75166;BME280;63747;48.042;10.088;2022-11-15T11:55:03;94613.50;;;12.34;54.84
75166;BME280;63747;48.042;10.088;2022-11-15T11:58:20;94614.28;;;12.28;54.80
75166;BME280;63747;48.042;10.088;2022-11-15T12:01:30;94613.34;;;12.49;53.99
75166;BME280;63747;48.042;10.088;2022-11-15T12:04:38;94610.31;;;12.65;54.25
75166;BME280;63747;48.042;10.088;2022-11-15T12:07:41;94613.38;;;12.69;53.39
75166;BME280;63747;48.042;10.088;2022-11-15T12:10:48;94613.00;;;12.78;53.52
75166;BME280;63747;48.042;10.088;2022-11-15T12:13:58;94601.53;;;12.71;53.33
75166;BME280;63747;48.042;10.088;2022-11-15T12:16:59;94604.75;;;12.60;53.39
75166;BME280;63747;48.042;10.088;2022-11-15T12:20:04;94603.75;;;12.61;53.05
75166;BME280;63747;48.042;10.088;2022-11-15T12:23:23;94602.31;;;12.65;52.88
75166;BME280;63747;48.042;10.088;2022-11-15T12:26:35;94609.41;;;12.38;53.08
75166;BME280;63747;48.042;10.088;2022-11-15T12:29:46;94607.78;;;12.44;53.51
75166;BME280;63747;48.042;10.088;2022-11-15T12:32:54;94605.34;;;12.49;53.27
75166;BME280;63747;48.042;10.088;2022-11-15T12:36:43;94608.63;;;12.51;52.86
75166;BME280;63747;48.042;10.088;2022-11-15T12:39:19;94606.94;;;12.37;52.55
75166;BME280;63747;48.042;10.088;2022-11-15T12:45:31;94600.28;;;12.13;53.04
75166;BME280;63747;48.042;10.088;2022-11-15T12:57:52;94601.38;;;12.25;53.57
75166;BME280;63747;48.042;10.088;2022-11-15T13:00:53;94603.50;;;12.43;53.58
75166;BME280;63747;48.042;10.088;2022-11-15T13:10:35;94598.94;;;12.30;55.05
75166;BME280;63747;48.042;10.088;2022-11-15T13:13:44;94603.47;;;12.36;55.23
75166;BME280;63747;48.042;10.088;2022-11-15T13:16:46;94596.94;;;12.39;55.07
75166;BME280;63747;48.042;10.088;2022-11-15T13:26:14;94591.25;;;12.48;55.47
75166;BME280;63747;48.042;10.088;2022-11-15T13:29:20;94589.19;;;12.50;55.49
75166;BME280;63747;48.042;10.088;2022-11-15T13:32:21;94599.41;;;12.47;56.10
75166;BME280;63747;48.042;10.088;2022-11-15T13:35:27;94594.09;;;12.53;55.77
75166;BME280;63747;48.042;10.088;2022-11-15T13:38:31;94584.69;;;12.51;55.91
75166;BME280;63747;48.042;10.088;2022-11-15T13:41:34;94584.91;;;12.49;55.81
75166;BME280;63747;48.042;10.088;2022-11-15T13:44:35;94585.91;;;12.42;55.36
75166;BME280;63747;48.042;10.088;2022-11-15T13:47:36;94575.47;;;12.47;56.14
75166;BME280;63747;48.042;10.088;2022-11-15T13:50:37;94570.44;;;12.72;55.84
75166;BME280;63747;48.042;10.088;2022-11-15T13:53:41;94567.78;;;12.72;55.70
75166;BME280;63747;48.042;10.088;2022-11-15T13:56:54;94566.72;;;12.66;56.16
75166;BME280;63747;48.042;10.088;2022-11-15T14:00:19;94562.63;;;12.57;55.78
75166;BME280;63747;48.042;10.088;2022-11-15T14:03:28;94562.19;;;12.40;56.54
75166;BME280;63747;48.042;10.088;2022-11-15T14:06:30;94551.97;;;12.44;56.35
75166;BME280;63747;48.042;10.088;2022-11-15T14:09:34;94538.47;;;12.39;56.60
75166;BME280;63747;48.042;10.088;2022-11-15T14:12:35;94539.28;;;12.46;56.98
75166;BME280;63747;48.042;10.088;2022-11-15T14:15:37;94534.41;;;12.56;56.81
75166;BME280;63747;48.042;10.088;2022-11-15T14:18:50;94528.28;;;12.56;56.32
75166;BME280;63747;48.042;10.088;2022-11-15T14:25:17;94520.50;;;12.47;56.51
75166;BME280;63747;48.042;10.088;2022-11-15T14:31:25;94517.63;;;12.49;56.53
75166;BME280;63747;48.042;10.088;2022-11-15T14:34:27;94509.25;;;12.52;56.42
75166;BME280;63747;48.042;10.088;2022-11-15T14:37:32;94502.28;;;12.51;56.38
75166;BME280;63747;48.042;10.088;2022-11-15T14:40:34;94503.72;;;12.47;56.46
75166;BME280;63747;48.042;10.088;2022-11-15T14:43:35;94499.22;;;12.41;56.70
75166;BME280;63747;48.042;10.088;2022-11-15T14:46:36;94490.81;;;12.31;56.97
75166;BME280;63747;48.042;10.088;2022-11-15T14:49:36;94500.38;;;12.18;57.80
75166;BME280;63747;48.042;10.088;2022-11-15T14:52:37;94486.91;;;12.13;57.86
75166;BME280;63747;48.042;10.088;2022-11-15T14:55:38;94477.06;;;12.07;57.60
75166;BME280;63747;48.042;10.088;2022-11-15T14:58:38;94471.75;;;12.01;57.72
75166;BME280;63747;48.042;10.088;2022-11-15T15:01:39;94469.69;;;11.96;57.77
75166;BME280;63747;48.042;10.088;2022-11-15T15:04:40;94471.66;;;11.87;58.14
75166;BME280;63747;48.042;10.088;2022-11-15T15:07:41;94474.47;;;11.73;58.41
75166;BME280;63747;48.042;10.088;2022-11-15T15:10:44;94467.88;;;11.62;58.53
75166;BME280;63747;48.042;10.088;2022-11-15T15:13:45;94464.13;;;11.43;58.87
75166;BME280;63747;48.042;10.088;2022-11-15T15:16:45;94456.94;;;11.37;58.75
75166;BME280;63747;48.042;10.088;2022-11-15T15:19:46;94448.53;;;11.27;59.13
75166;BME280;63747;48.042;10.088;2022-11-15T15:22:47;94441.94;;;11.16;59.37
75166;BME280;63747;48.042;10.088;2022-11-15T15:25:48;94440.06;;;11.10;59.40
75166;BME280;63747;48.042;10.088;2022-11-15T15:28:49;94437.56;;;11.02;59.67
75166;BME280;63747;48.042;10.088;2022-11-15T15:31:51;94432.81;;;10.91;59.55
75166;BME280;63747;48.042;10.088;2022-11-15T15:34:51;94437.06;;;10.85;59.74
75166;BME280;63747;48.042;10.088;2022-11-15T15:37:52;94435.56;;;10.76;59.97
75166;BME280;63747;48.042;10.088;2022-11-15T15:40:53;94438.22;;;10.76;59.85
75166;BME280;63747;48.042;10.088;2022-11-15T15:43:55;94434.66;;;10.69;59.95
75166;BME280;63747;48.042;10.088;2022-11-15T15:46:56;94430.94;;;10.63;60.18
75166;BME280;63747;48.042;10.088;2022-11-15T15:49:57;94424.63;;;10.57;60.24
75166;BME280;63747;48.042;10.088;2022-11-15T15:53:00;94432.31;;;10.52;60.61
75166;BME280;63747;48.042;10.088;2022-11-15T15:56:02;94432.88;;;10.48;60.54
75166;BME280;63747;48.042;10.088;2022-11-15T15:59:03;94428.41;;;10.48;60.94
75166;BME280;63747;48.042;10.088;2022-11-15T16:02:03;94434.31;;;10.72;60.70
75166;BME280;63747;48.042;10.088;2022-11-15T16:05:05;94438.22;;;11.10;59.79
75166;BME280;63747;48.042;10.088;2022-11-15T16:08:12;94432.50;;;11.07;59.35
75166;BME280;63747;48.042;10.088;2022-11-15T16:11:17;94421.22;;;10.92;59.99
75166;BME280;63747;48.042;10.088;2022-11-15T16:14:18;94416.34;;;11.02;59.74
75166;BME280;63747;48.042;10.088;2022-11-15T16:17:21;94407.25;;;11.18;59.21
75166;BME280;63747;48.042;10.088;2022-11-15T16:23:23;94401.66;;;10.99;59.64
75166;BME280;63747;48.042;10.088;2022-11-15T16:26:26;94396.50;;;10.91;59.53
75166;BME280;63747;48.042;10.088;2022-11-15T16:29:27;94391.75;;;10.80;59.68
75166;BME280;63747;48.042;10.088;2022-11-15T16:32:28;94384.94;;;10.71;59.87
75166;BME280;63747;48.042;10.088;2022-11-15T16:35:29;94382.88;;;10.66;60.02
75166;BME280;63747;48.042;10.088;2022-11-15T16:38:29;94381.00;;;10.60;59.96
75166;BME280;63747;48.042;10.088;2022-11-15T16:41:31;94375.09;;;10.58;60.08
75166;BME280;63747;48.042;10.088;2022-11-15T16:44:31;94370.97;;;10.55;59.77
75166;BME280;63747;48.042;10.088;2022-11-15T16:47:32;94373.81;;;10.54;59.87
75166;BME280;63747;48.042;10.088;2022-11-15T16:50:34;94360.13;;;10.50;59.74
75166;BME280;63747;48.042;10.088;2022-11-15T16:53:41;94362.72;;;10.44;59.96
75166;BME280;63747;48.042;10.088;2022-11-15T16:56:42;94352.28;;;10.35;60.00
75166;BME280;63747;48.042;10.088;2022-11-15T16:59:42;94361.66;;;10.31;60.23
75166;BME280;63747;48.042;10.088;2022-11-15T17:02:47;94355.69;;;10.29;60.24
75166;BME280;63747;48.042;10.088;2022-11-15T17:05:48;94348.09;;;10.20;60.45
75166;BME280;63747;48.042;10.088;2022-11-15T17:08:49;94347.16;;;10.06;61.01
75166;BME280;63747;48.042;10.088;2022-11-15T17:11:50;94351.41;;;10.00;61.42
75166;BME280;63747;48.042;10.088;2022-11-15T17:14:51;94344.97;;;9.88;61.67
75166;BME280;63747;48.042;10.088;2022-11-15T17:17:52;94345.09;;;9.80;62.01
75166;BME280;63747;48.042;10.088;2022-11-15T17:20:53;94344.78;;;9.68;62.39
75166;BME280;63747;48.042;10.088;2022-11-15T17:23:54;94339.06;;;9.65;62.74
75166;BME280;63747;48.042;10.088;2022-11-15T17:26:55;94336.63;;;9.63;62.69
75166;BME280;63747;48.042;10.088;2022-11-15T17:29:56;94331.13;;;9.65;62.66
75166;BME280;63747;48.042;10.088;2022-11-15T17:32:57;94332.75;;;9.66;62.66